Time;durP1;ratioP1;P1;durP2;ratioP2;P2;SDS_P1;SDS_P2;PMS_P1;PMS_P2;Temp;Humidity;BMP_temperature;BMP_pressure;BME280_temperature;BME280_humidity;BME280_pressure;Samples;Min_cycle;Max_cycle;Signal;HPM_P1;HPM_P2
2024/01/14 00:00:33;;;;;;;11.63;1.88;;;;;;;27.16;28.46;99987.94;7398082;19;20380;-94
2024/01/14 00:02:59;;;;;;;10.65;1.45;;;;;;;26.51;28.97;99993.84;7395294;19;20010;-95
2024/01/14 00:05:25;;;;;;;8.45;2.28;;;;;;;26.15;29.36;99988.59;7397834;19;20014;-95
2024/01/14 00:07:54;;;;;;;3.25;0.85;;;;;;;26.10;29.62;99983.88;7398942;19;20035;-95
2024/01/14 00:10:22;;;;;;;9.85;2.35;;;;;;;25.94;29.46;99981.69;7394199;19;20018;-95
2024/01/14 00:12:48;;;;;;;1.45;0.98;;;;;;;26.24;29.34;99975.78;7397644;19;20386;-95
2024/01/14 00:15:14;;;;;;;4.20;2.35;;;;;;;27.10;28.58;99973.13;7393404;19;20011;-94
2024/01/14 00:17:41;;;;;;;7.10;1.73;;;;;;;27.87;28.08;99968.75;7391700;19;20015;-94
2024/01/14 00:20:08;;;;;;;5.32;1.70;;;;;;;28.51;27.30;99962.44;7391582;19;20022;-94
2024/01/14 00:22:34;;;;;;;7.22;1.98;;;;;;;28.71;26.87;99951.81;7390422;19;20079;-94
2024/01/14 00:25:00;;;;;;;7.05;1.73;;;;;;;29.07;27.13;99952.47;7396166;19;20006;-94
2024/01/14 00:27:26;;;;;;;1.33;0.80;;;;;;;28.47;27.34;99948.56;7392519;19;20010;-94
2024/01/14 00:29:57;;;;;;;3.47;1.42;;;;;;;28.20;27.54;99956.44;7392160;19;20078;-93
2024/01/14 00:32:23;;;;;;;3.45;0.82;;;;;;;28.93;27.01;99942.81;7392002;19;20018;-93
2024/01/14 00:34:49;;;;;;;0.95;0.70;;;;;;;29.14;26.50;99936.47;7397044;19;20015;-93
2024/01/14 00:37:15;;;;;;;6.13;2.28;;;;;;;27.98;27.83;99939.63;7392629;19;20018;-93
2024/01/14 00:39:42;;;;;;;1.25;1.15;;;;;;;27.11;28.17;99940.34;7391409;19;20018;-93
2024/01/14 00:42:08;;;;;;;5.13;2.03;;;;;;;26.62;28.51;99924.81;7391732;19;20509;-94
2024/01/14 00:44:34;;;;;;;1.95;0.70;;;;;;;24.51;30.59;99923.00;7395543;19;20078;-93
2024/01/14 00:47:01;;;;;;;0.30;0.30;;;;;;;24.73;30.14;99917.25;7393237;19;20047;-93
2024/01/14 00:49:27;;;;;;;1.40;0.50;;;;;;;23.74;31.09;99927.09;7392215;19;20092;-94
2024/01/14 00:51:53;;;;;;;0.95;0.75;;;;;;;26.65;28.81;99920.03;7391690;19;20010;-94
2024/01/14 00:54:19;;;;;;;1.85;1.20;;;;;;;28.84;26.66;99914.09;7394724;19;20026;-93
2024/01/14 00:56:46;;;;;;;0.30;0.30;;;;;;;29.78;26.21;99908.91;7392659;19;20015;-95
2024/01/14 00:59:12;;;;;;;0.75;0.50;;;;;;;30.33;25.61;99904.94;7393826;19;20031;-93
2024/01/14 01:01:38;;;;;;;1.10;0.63;;;;;;;30.22;25.56;99908.44;7394804;19;20672;-94
2024/01/14 01:04:04;;;;;;;0.68;0.68;;;;;;;29.68;26.20;99897.44;7398689;19;20018;-94
2024/01/14 01:06:30;;;;;;;0.77;0.52;;;;;;;29.28;26.26;99906.00;7397194;19;20041;-94
2024/01/14 01:08:56;;;;;;;1.10;0.40;;;;;;;30.28;25.67;99900.22;7399645;19;20022;-94
2024/01/14 01:11:22;;;;;;;6.82;0.80;;;;;;;30.37;25.54;99894.47;7400666;19;20115;-94
2024/01/14 01:13:48;;;;;;;0.73;0.73;;;;;;;30.09;25.55;99895.34;7411408;19;20007;-94
2024/01/14 01:16:15;;;;;;;3.03;0.95;;;;;;;29.80;25.75;99886.84;7406790;19;20022;-94
2024/01/14 01:18:41;;;;;;;13.00;0.85;;;;;;;27.82;27.14;99893.25;7404352;19;20026;-93
2024/01/14 01:21:07;;;;;;;0.55;0.32;;;;;;;28.16;26.98;99887.38;7398562;19;20021;-92
2024/01/14 01:23:33;;;;;;;0.10;0.10;;;;;;;28.07;26.48;99882.38;7394915;19;20010;-92
2024/01/14 01:25:59;;;;;;;0.10;0.10;;;;;;;28.60;26.27;99886.47;7396381;19;20111;-93
2024/01/14 01:28:25;;;;;;;0.30;0.30;;;;;;;29.39;25.74;99882.38;7393906;19;20026;-93
2024/01/14 01:30:51;;;;;;;0.57;0.57;;;;;;;29.49;25.80;99888.88;7402670;19;20015;-93
2024/01/14 01:33:17;;;;;;;0.30;0.30;;;;;;;29.65;25.56;99883.56;7398041;19;20014;-94
2024/01/14 01:35:44;;;;;;;0.30;0.30;;;;;;;29.69;25.42;99875.97;7400173;19;20010;-93
2024/01/14 01:38:10;;;;;;;20.92;0.73;;;;;;;29.78;25.44;99871.56;7409572;19;20417;-93
2024/01/14 01:40:36;;;;;;;0.43;0.30;;;;;;;29.82;25.13;99872.63;7405873;19;20039;-93
2024/01/14 01:43:02;;;;;;;0.68;0.43;;;;;;;29.99;25.36;99881.00;7398743;19;20022;-92
2024/01/14 01:45:28;;;;;;;0.57;0.45;;;;;;;30.08;24.78;99865.13;7402724;19;20036;-93
2024/01/14 01:47:54;;;;;;;0.47;0.40;;;;;;;29.99;25.18;99869.53;7399043;19;20018;-92
2024/01/14 01:50:21;;;;;;;0.30;0.20;;;;;;;29.72;25.29;99857.53;7398086;19;20027;-92
2024/01/14 01:52:48;;;;;;;1.85;0.68;;;;;;;29.82;25.11;99863.28;7397425;19;20082;-93
2024/01/14 01:55:14;;;;;;;0.10;0.10;;;;;;;30.79;24.44;99861.34;7401224;19;20033;-92
2024/01/14 01:57:41;;;;;;;2.28;0.40;;;;;;;31.20;24.07;99854.06;7397062;19;20033;-92
2024/01/14 02:00:08;;;;;;;0.30;0.30;;;;;;;30.64;24.42;99856.78;7395058;19;20018;-91
2024/01/14 02:02:41;;;;;;;0.20;0.20;;;;;;;30.34;24.58;99852.56;7396023;19;20026;-92
2024/01/14 02:05:08;;;;;;;5.45;0.65;;;;;;;30.22;24.67;99851.72;7395875;19;20256;-92
2024/01/14 02:07:34;;;;;;;22.10;1.00;;;;;;;30.24;24.47;99842.50;7400798;19;20022;-92
2024/01/14 02:10:01;;;;;;;0.40;0.40;;;;;;;31.11;23.90;99844.13;7397639;19;20011;-91
2024/01/14 02:12:27;;;;;;;1.25;0.50;;;;;;;31.83;23.51;99838.66;7395246;19;20045;-92
2024/01/14 02:14:53;;;;;;;0.30;0.30;;;;;;;32.19;23.23;99840.94;7397433;19;20022;-92
2024/01/14 02:17:19;;;;;;;0.10;0.10;;;;;;;31.52;23.21;99841.00;7396569;19;20026;-92
2024/01/14 02:19:45;;;;;;;0.35;0.20;;;;;;;31.52;23.58;99838.13;7400093;19;20019;-92
2024/01/14 02:22:17;;;;;;;0.10;0.10;;;;;;;31.77;23.35;99835.41;7395911;19;20044;-92
2024/01/14 02:24:45;;;;;;;3.72;1.13;;;;;;;31.53;23.30;99833.88;7396018;19;20018;-92
2024/01/14 02:27:11;;;;;;;0.10;0.10;;;;;;;31.38;23.40;99832.94;7396317;19;20023;-92
2024/01/14 02:29:40;;;;;;;1.17;0.20;;;;;;;31.26;23.43;99835.03;7395629;19;20053;-92
2024/01/14 02:32:06;;;;;;;0.55;0.17;;;;;;;31.36;23.23;99832.06;7394238;19;20018;-92
2024/01/14 02:34:35;;;;;;;0.85;0.85;;;;;;;31.18;23.34;99828.78;7398700;19;20015;-93
2024/01/14 02:37:02;;;;;;;0.30;0.30;;;;;;;31.19;23.34;99830.25;7396315;19;20075;-92
2024/01/14 02:39:28;;;;;;;1.65;0.10;;;;;;;31.41;23.65;99831.72;7397913;19;20504;-92
2024/01/14 02:41:55;;;;;;;0.10;0.10;;;;;;;31.87;23.24;99836.03;7394393;19;20018;-92
2024/01/14 02:44:21;;;;;;;0.10;0.10;;;;;;;32.18;22.75;99834.41;7395328;19;20014;-92
2024/01/14 02:46:47;;;;;;;2.10;0.47;;;;;;;32.78;22.51;99828.66;7394514;19;20487;-92
2024/01/14 02:49:13;;;;;;;0.10;0.10;;;;;;;32.63;22.42;99819.81;7397210;19;20512;-93
2024/01/14 02:51:39;;;;;;;0.35;0.28;;;;;;;32.77;22.39;99823.50;7393718;19;20022;-92
2024/01/14 02:54:05;;;;;;;0.52;0.20;;;;;;;32.42;22.32;99820.69;7394593;19;20509;-92
2024/01/14 02:56:31;;;;;;;2.70;1.08;;;;;;;31.30;23.33;99823.78;7396480;19;20026;-92
2024/01/14 02:58:58;;;;;;;0.20;0.15;;;;;;;31.00;23.15;99821.81;7398157;19;20029;-93
2024/01/14 03:01:24;;;;;;;0.10;0.10;;;;;;;31.04;23.43;99822.09;7392195;19;20015;-93
2024/01/14 03:03:50;;;;;;;0.20;0.20;;;;;;;30.97;23.38;99819.44;7395940;19;20026;-93
2024/01/14 03:06:16;;;;;;;0.30;0.30;;;;;;;31.12;23.27;99819.72;7394435;19;20204;-92
2024/01/14 03:08:42;;;;;;;0.30;0.30;;;;;;;30.92;23.49;99804.03;7393764;19;20010;-92
2024/01/14 03:11:08;;;;;;;0.10;0.00;;;;;;;31.08;23.29;99801.47;7392631;19;20018;-93
2024/01/14 03:13:34;;;;;;;0.28;0.28;;;;;;;31.20;23.31;99805.88;7393226;19;20010;-93
2024/01/14 03:16:00;;;;;;;0.10;0.00;;;;;;;30.85;23.35;99784.84;7393001;19;20026;-92
2024/01/14 03:18:27;;;;;;;0.10;0.10;;;;;;;31.43;23.35;99780.03;7394769;19;20010;-92
2024/01/14 03:20:53;;;;;;;0.45;0.45;;;;;;;31.95;22.80;99785.44;7393288;19;20060;-92
2024/01/14 03:23:19;;;;;;;0.10;0.10;;;;;;;31.41;22.99;99785.66;7391739;19;20066;-93
2024/01/14 03:25:45;;;;;;;0.10;0.10;;;;;;;29.81;23.72;99779.25;7395692;19;20018;-93
2024/01/14 03:28:11;;;;;;;5.38;0.38;;;;;;;29.20;24.57;99779.16;7395332;19;20014;-93
2024/01/14 03:30:37;;;;;;;0.32;0.32;;;;;;;29.00;24.44;99777.69;7393169;19;20110;-92
2024/01/14 03:33:03;;;;;;;0.30;0.30;;;;;;;28.76;25.00;99764.44;7394052;19;20531;-93
2024/01/14 03:35:29;;;;;;;0.10;0.10;;;;;;;28.92;24.85;99772.09;7395117;19;20468;-93
2024/01/14 03:37:55;;;;;;;0.13;0.13;;;;;;;29.03;24.61;99765.72;7393919;19;20033;-93
2024/01/14 03:40:22;;;;;;;0.10;0.10;;;;;;;28.21;24.87;99762.44;7398234;19;20021;-93
2024/01/14 03:42:48;;;;;;;0.30;0.30;;;;;;;27.66;25.50;99757.44;7392399;19;20356;-92
2024/01/14 03:45:14;;;;;;;0.10;0.10;;;;;;;28.32;24.74;99754.00;7395132;19;20019;-92
2024/01/14 03:47:40;;;;;;;0.10;0.10;;;;;;;28.44;24.96;99752.03;7392184;19;20031;-92
2024/01/14 03:50:06;;;;;;;2.92;0.20;;;;;;;27.57;25.21;99749.63;7396800;19;20018;-93
2024/01/14 03:52:32;;;;;;;0.85;0.40;;;;;;;27.43;25.44;99745.63;7390165;19;20025;-92
2024/01/14 03:54:59;;;;;;;0.10;0.10;;;;;;;27.17;25.92;99754.97;7392572;19;20015;-92
2024/01/14 03:57:25;;;;;;;0.10;0.10;;;;;;;27.22;25.75;99751.84;7393344;19;20031;-94
2024/01/14 03:59:51;;;;;;;0.10;0.10;;;;;;;27.13;25.68;99748.94;7394195;19;20018;-93
2024/01/14 04:02:17;;;;;;;0.57;0.40;;;;;;;26.91;26.20;99747.91;7392358;19;20018;-92
2024/01/14 04:04:43;;;;;;;0.10;0.10;;;;;;;27.26;25.85;99734.25;7395937;19;20024;-89
2024/01/14 04:07:09;;;;;;;0.30;0.20;;;;;;;27.42;25.27;99744.09;7391763;19;20015;-89
2024/01/14 04:09:35;;;;;;;0.10;0.10;;;;;;;26.89;25.91;99745.63;7394535;19;20018;-89
2024/01/14 04:12:01;;;;;;;0.20;0.20;;;;;;;26.49;26.30;99739.44;7391729;19;20018;-89
2024/01/14 04:14:28;;;;;;;0.10;0.10;;;;;;;26.44;26.22;99737.63;7392924;19;20074;-89
2024/01/14 04:16:54;;;;;;;0.10;0.10;;;;;;;26.34;26.12;99742.47;7391649;19;20342;-89
2024/01/14 04:19:20;;;;;;;1.00;0.17;;;;;;;26.30;25.80;99740.06;7391301;19;20014;-89
2024/01/14 04:21:46;;;;;;;1.05;0.47;;;;;;;26.10;25.87;99732.66;7391566;19;20018;-89
2024/01/14 04:24:12;;;;;;;0.55;0.40;;;;;;;26.19;25.74;99736.94;7389659;19;20021;-89
2024/01/14 04:26:39;;;;;;;0.40;0.30;;;;;;;25.91;26.00;99737.38;7389228;19;20011;-88
2024/01/14 04:29:05;;;;;;;0.10;0.10;;;;;;;25.59;26.32;99724.00;7389687;19;20034;-88
2024/01/14 04:31:31;;;;;;;0.10;0.10;;;;;;;25.76;25.89;99726.13;7391543;19;20018;-89
2024/01/14 04:33:59;;;;;;;0.20;0.20;;;;;;;25.47;26.37;99725.78;7394414;19;20472;-89
2024/01/14 04:36:26;;;;;;;0.17;0.17;;;;;;;25.14;26.60;99730.03;7392455;19;20019;-88
2024/01/14 04:38:52;;;;;;;0.52;0.52;;;;;;;25.12;26.88;99721.28;7391565;19;20018;-88
2024/01/14 04:41:18;;;;;;;0.10;0.10;;;;;;;25.30;26.32;99717.16;7388814;19;20021;-89
2024/01/14 04:43:44;;;;;;;0.10;0.10;;;;;;;25.34;26.25;99715.41;7394303;19;20018;-89
2024/01/14 04:46:10;;;;;;;0.57;0.38;;;;;;;25.21;26.13;99712.13;7389253;19;20015;-89
2024/01/14 04:48:37;;;;;;;0.10;0.10;;;;;;;25.20;26.58;99714.22;7390907;19;20023;-89
2024/01/14 04:51:03;;;;;;;0.10;0.10;;;;;;;25.48;25.98;99713.06;7389174;19;20022;-89
2024/01/14 04:53:29;;;;;;;0.10;0.10;;;;;;;25.63;25.97;99717.88;7390807;19;20022;-89
2024/01/14 04:55:55;;;;;;;0.22;0.22;;;;;;;26.29;25.84;99720.66;7391644;19;20041;-89
2024/01/14 04:58:21;;;;;;;0.20;0.20;;;;;;;27.60;24.85;99705.47;7391591;19;20094;-89
2024/01/14 05:00:47;;;;;;;0.10;0.10;;;;;;;27.90;24.75;99699.22;7390758;19;20022;-89
2024/01/14 05:03:13;;;;;;;0.10;0.10;;;;;;;28.03;24.60;99701.66;7391939;19;20782;-89
2024/01/14 05:05:40;;;;;;;0.10;0.10;;;;;;;27.83;24.55;99700.09;7389751;19;20019;-89
2024/01/14 05:08:06;;;;;;;0.10;0.10;;;;;;;27.80;24.69;99695.59;7394610;19;20026;-88
2024/01/14 05:10:32;;;;;;;0.45;0.17;;;;;;;27.39;25.14;99696.69;7390572;19;20030;-88
2024/01/14 05:12:58;;;;;;;0.10;0.10;;;;;;;27.08;25.44;99696.38;7391035;19;20036;-89
2024/01/14 05:15:24;;;;;;;0.40;0.40;;;;;;;26.81;25.94;99695.66;7393418;19;20774;-89
2024/01/14 05:17:50;;;;;;;0.40;0.30;;;;;;;26.68;25.97;99688.16;7391677;19;20070;-89
2024/01/14 05:20:16;;;;;;;0.10;0.10;;;;;;;26.74;25.73;99680.13;7390788;19;20105;-89
2024/01/14 05:22:42;;;;;;;0.20;0.20;;;;;;;26.76;25.79;99682.38;7389412;19;20039;-88
2024/01/14 05:25:08;;;;;;;0.20;0.20;;;;;;;26.61;25.79;99674.75;7392829;19;20010;-89
2024/01/14 05:27:35;;;;;;;0.20;0.20;;;;;;;26.44;26.00;99683.34;7390097;19;20010;-89
2024/01/14 05:30:03;;;;;;;0.32;0.32;;;;;;;26.52;25.90;99675.44;7389698;19;20452;-89
2024/01/14 05:32:29;;;;;;;0.10;0.00;;;;;;;26.53;25.87;99681.91;7390290;19;20039;-89
2024/01/14 05:34:55;;;;;;;1.17;0.30;;;;;;;26.51;26.16;99682.47;7394049;19;20041;-89
2024/01/14 05:37:21;;;;;;;0.10;0.10;;;;;;;26.76;25.62;99680.28;7391614;19;20021;-88
2024/01/14 05:39:48;;;;;;;0.10;0.10;;;;;;;26.79;25.82;99676.22;7390860;19;20017;-89
2024/01/14 05:42:14;;;;;;;0.75;0.32;;;;;;;27.13;25.47;99680.31;7390309;19;20018;-88
2024/01/14 05:44:40;;;;;;;0.43;0.30;;;;;;;26.97;25.58;99683.41;7394571;19;20457;-89
2024/01/14 05:47:06;;;;;;;0.10;0.10;;;;;;;26.79;26.04;99676.22;7390640;19;20449;-89
2024/01/14 05:49:33;;;;;;;0.20;0.20;;;;;;;26.77;25.81;99678.16;7391589;19;20392;-88
2024/01/14 05:51:59;;;;;;;0.75;0.20;;;;;;;26.80;25.66;99677.75;7390691;19;20022;-89
2024/01/14 05:54:25;;;;;;;0.10;0.10;;;;;;;26.58;25.93;99675.16;7391013;19;20043;-88
2024/01/14 05:56:51;;;;;;;0.10;0.10;;;;;;;26.67;25.61;99666.66;7391069;19;20582;-89
2024/01/14 05:59:17;;;;;;;0.17;0.17;;;;;;;26.76;25.34;99668.84;7391000;19;20027;-89
2024/01/14 06:01:43;;;;;;;0.10;0.10;;;;;;;28.58;24.40;99660.66;7387170;19;20028;-89
2024/01/14 06:04:10;;;;;;;0.38;0.38;;;;;;;30.33;23.24;99655.66;7391309;19;20038;-89
2024/01/14 06:06:36;;;;;;;0.20;0.10;;;;;;;29.12;24.42;99658.06;7387851;19;20372;-89
2024/01/14 06:09:02;;;;;;;0.15;0.15;;;;;;;27.67;25.34;99645.28;7388238;19;20015;-89
2024/01/14 06:11:29;;;;;;;0.20;0.17;;;;;;;27.24;25.78;99659.72;7388181;19;20021;-88
2024/01/14 06:13:55;;;;;;;0.30;0.30;;;;;;;27.31;25.51;99653.13;7389908;19;20018;-89
2024/01/14 06:16:21;;;;;;;0.10;0.03;;;;;;;27.72;25.12;99654.91;7389053;19;20018;-89
2024/01/14 06:18:47;;;;;;;0.10;0.10;;;;;;;27.82;24.72;99647.09;7388893;19;20014;-89
2024/01/14 06:21:13;;;;;;;0.10;0.10;;;;;;;27.74;25.21;99638.63;7386912;19;20022;-89
2024/01/14 06:23:40;;;;;;;0.30;0.30;;;;;;;28.09;24.96;99636.25;7395072;19;20051;-89
2024/01/14 06:26:06;;;;;;;0.10;0.10;;;;;;;28.03;24.87;99638.69;7393957;19;20034;-88
2024/01/14 06:28:32;;;;;;;0.10;0.10;;;;;;;27.82;25.48;99635.63;7395108;19;20025;-89
2024/01/14 06:30:58;;;;;;;0.30;0.28;;;;;;;28.12;24.89;99629.34;7395419;19;20024;-89
2024/01/14 06:33:24;;;;;;;0.10;0.10;;;;;;;27.85;25.07;99627.97;7396340;19;20468;-89
2024/01/14 06:35:50;;;;;;;0.10;0.10;;;;;;;27.85;25.34;99634.44;7396916;19;20026;-88
2024/01/14 06:38:16;;;;;;;0.20;0.20;;;;;;;28.22;25.08;99627.22;7396315;19;20010;-89
2024/01/14 06:40:42;;;;;;;2.67;0.52;;;;;;;27.26;25.54;99622.72;7395720;19;20006;-88
2024/01/14 06:43:08;;;;;;;2.50;0.43;;;;;;;27.05;26.00;99618.28;7394682;19;20475;-89
2024/01/14 06:45:34;;;;;;;0.30;0.00;;;;;;;27.09;25.99;99619.94;7396463;19;20022;-89
2024/01/14 06:48:01;;;;;;;0.10;0.10;;;;;;;27.15;25.97;99617.56;7396317;19;20014;-89
2024/01/14 06:50:27;;;;;;;19.48;1.20;;;;;;;27.58;25.52;99619.50;7396086;19;20022;-88
2024/01/14 06:52:53;;;;;;;0.85;0.20;;;;;;;27.74;25.67;99620.72;7395046;19;20409;-87
2024/01/14 06:55:19;;;;;;;0.40;0.22;;;;;;;27.90;25.49;99619.06;7400156;19;20018;-88
2024/01/14 06:57:45;;;;;;;0.40;0.30;;;;;;;27.99;25.81;99631.91;7397134;19;20037;-89
2024/01/14 07:00:12;;;;;;;0.10;0.10;;;;;;;28.10;25.46;99626.31;7396104;19;20014;-90
2024/01/14 07:02:38;;;;;;;0.75;0.20;;;;;;;28.08;25.31;99617.59;7393292;19;20014;-89
2024/01/14 07:05:06;;;;;;;0.70;0.40;;;;;;;28.05;25.29;99618.03;7397825;19;20488;-88
2024/01/14 07:07:33;;;;;;;22.80;0.68;;;;;;;27.94;25.65;99625.09;7395566;19;20018;-88
2024/01/14 07:09:59;;;;;;;0.10;0.10;;;;;;;27.70;25.79;99623.25;7396176;19;20082;-89
2024/01/14 07:12:25;;;;;;;1.88;0.57;;;;;;;27.43;26.30;99619.75;7394182;19;20079;-89
2024/01/14 07:14:51;;;;;;;0.13;0.13;;;;;;;27.47;25.95;99611.50;7394744;19;20022;-89
2024/01/14 07:17:18;;;;;;;0.10;0.10;;;;;;;27.92;25.92;99613.47;7391795;19;20112;-89
2024/01/14 07:19:45;;;;;;;0.20;0.20;;;;;;;27.91;25.76;99612.00;7391243;19;20019;-88
2024/01/14 07:22:11;;;;;;;1.08;0.10;;;;;;;28.10;25.48;99614.88;7391102;19;20086;-89
2024/01/14 07:24:37;;;;;;;0.55;0.55;;;;;;;28.14;25.50;99618.03;7393411;19;20018;-89
2024/01/14 07:27:04;;;;;;;0.13;0.13;;;;;;;28.25;25.54;99605.97;7390015;19;20010;-89
2024/01/14 07:29:30;;;;;;;23.05;0.95;;;;;;;28.16;25.61;99611.69;7396560;19;20067;-89
2024/01/14 07:31:56;;;;;;;0.20;0.20;;;;;;;28.14;25.50;99602.94;7393352;19;20022;-89
2024/01/14 07:34:23;;;;;;;0.10;0.10;;;;;;;27.64;25.45;99602.78;7393520;19;20018;-89
2024/01/14 07:36:49;;;;;;;0.10;0.10;;;;;;;27.43;26.01;99600.50;7392989;19;20018;-89
2024/01/14 07:39:16;;;;;;;0.20;0.20;;;;;;;27.42;26.04;99593.25;7394341;19;20052;-89
2024/01/14 07:41:42;;;;;;;0.10;0.10;;;;;;;27.63;25.86;99596.31;7393488;19;20401;-88
2024/01/14 07:44:12;;;;;;;0.32;0.30;;;;;;;27.32;26.15;99600.28;7390228;19;20071;-89
2024/01/14 07:46:39;;;;;;;0.25;0.10;;;;;;;28.47;25.28;99603.94;7393782;19;20029;-89
2024/01/14 07:49:05;;;;;;;0.38;0.38;;;;;;;28.41;25.37;99592.78;7393122;19;20019;-89
2024/01/14 07:51:31;;;;;;;6.95;1.15;;;;;;;27.94;25.88;99604.31;7390362;19;20373;-89
2024/01/14 07:53:57;;;;;;;0.38;0.38;;;;;;;28.50;25.44;99597.75;7392367;19;20055;-89
2024/01/14 07:56:23;;;;;;;0.10;0.10;;;;;;;28.37;25.53;99603.97;7393674;19;20393;-89
2024/01/14 07:58:50;;;;;;;0.20;0.20;;;;;;;28.19;25.61;99599.78;7395771;19;20021;-89
2024/01/14 08:01:16;;;;;;;0.10;0.10;;;;;;;28.14;25.48;99589.38;7391430;19;20025;-89
2024/01/14 08:03:42;;;;;;;0.40;0.20;;;;;;;28.56;25.41;99602.41;7395102;19;20015;-89
2024/01/14 08:06:09;;;;;;;0.45;0.45;;;;;;;30.30;23.76;99592.91;7392732;19;20022;-89
2024/01/14 08:08:35;;;;;;;0.20;0.20;;;;;;;30.78;23.60;99595.25;7390142;19;20026;-89
2024/01/14 08:11:01;;;;;;;0.35;0.10;;;;;;;30.54;23.83;99595.22;7393178;19;20018;-89
2024/01/14 08:13:28;;;;;;;0.63;0.45;;;;;;;29.24;24.81;99605.19;7389348;19;20011;-89
2024/01/14 08:15:54;;;;;;;0.17;0.17;;;;;;;29.00;24.91;99609.22;7392836;19;20015;-89
2024/01/14 08:18:20;;;;;;;2.40;0.85;;;;;;;29.16;24.60;99604.66;7392592;19;20020;-89
2024/01/14 08:20:47;;;;;;;6.85;1.27;;;;;;;28.13;25.17;99605.06;7390704;19;20358;-90
2024/01/14 08:23:13;;;;;;;13.38;2.03;;;;;;;27.48;25.96;99596.56;7394770;19;20022;-88
2024/01/14 08:25:40;;;;;;;16.60;2.70;;;;;;;27.85;25.44;99605.81;7392391;19;20018;-89
2024/01/14 08:28:06;;;;;;;9.40;2.97;;;;;;;27.62;25.51;99594.03;7393379;19;20019;-89
2024/01/14 08:30:32;;;;;;;10.82;3.78;;;;;;;27.57;26.05;99597.97;7390967;19;20521;-88
2024/01/14 08:32:59;;;;;;;16.02;2.95;;;;;;;27.63;25.70;99602.03;7392054;19;20018;-87
2024/01/14 08:35:26;;;;;;;37.38;6.55;;;;;;;27.70;26.18;99606.09;7393647;19;20014;-92
2024/01/14 08:37:52;;;;;;;7.22;2.97;;;;;;;28.08;25.36;99605.38;7393593;19;20416;-90
2024/01/14 08:40:18;;;;;;;13.55;4.05;;;;;;;27.48;25.55;99588.00;7391444;19;20021;-91
2024/01/14 08:42:44;;;;;;;20.13;5.75;;;;;;;27.40;25.63;99598.06;7391767;19;20014;-90
2024/01/14 08:45:13;;;;;;;8.15;2.22;;;;;;;27.79;25.12;99596.75;7393922;19;20040;-90
2024/01/14 08:47:40;;;;;;;26.77;3.40;;;;;;;27.95;25.44;99597.22;7395190;19;20018;-90
2024/01/14 08:50:09;;;;;;;5.68;2.75;;;;;;;28.18;24.64;99591.78;7389726;19;20022;-88
2024/01/14 08:52:39;;;;;;;13.95;2.10;;;;;;;28.00;25.03;99579.78;7385358;19;20014;-87
2024/01/14 08:55:06;;;;;;;9.95;2.55;;;;;;;30.00;23.47;99583.06;7387392;19;20026;-87
2024/01/14 08:57:32;;;;;;;7.68;0.73;;;;;;;30.65;23.12;99585.13;7385257;19;20415;-89
2024/01/14 08:59:58;;;;;;;2.67;1.23;;;;;;;28.73;24.10;99579.31;7389276;19;20089;-85
2024/01/14 09:02:27;;;;;;;4.32;1.70;;;;;;;27.87;24.61;99576.59;7384669;19;20022;-87
2024/01/14 09:04:54;;;;;;;9.43;1.42;;;;;;;27.71;24.46;99573.25;7390599;19;20014;-87
2024/01/14 09:07:20;;;;;;;2.55;1.15;;;;;;;26.88;25.54;99574.72;7387830;19;20019;-87
2024/01/14 09:09:46;;;;;;;10.30;1.40;;;;;;;27.32;24.95;99572.44;7393639;19;20053;-88
2024/01/14 09:12:12;;;;;;;1.73;1.15;;;;;;;26.50;25.27;99580.25;7391281;19;20014;-87
2024/01/14 09:14:38;;;;;;;0.50;0.50;;;;;;;27.09;25.39;99571.34;7392724;19;20015;-87
2024/01/14 09:17:04;;;;;;;4.03;1.25;;;;;;;27.46;24.91;99572.81;7390950;19;20026;-88
2024/01/14 09:19:30;;;;;;;0.63;0.63;;;;;;;27.75;24.83;99570.69;7392174;19;20021;-87
2024/01/14 09:21:57;;;;;;;0.50;0.50;;;;;;;27.70;24.66;99575.38;7389850;19;20015;-87
2024/01/14 09:24:24;;;;;;;0.70;0.70;;;;;;;27.01;25.08;99571.47;7389800;19;20015;-87
2024/01/14 09:26:50;;;;;;;1.05;1.00;;;;;;;27.34;25.29;99569.75;7389837;19;20014;-87
2024/01/14 09:29:16;;;;;;;0.45;0.45;;;;;;;27.25;25.59;99572.56;7390070;19;20015;-87
2024/01/14 09:31:42;;;;;;;2.17;0.35;;;;;;;27.69;25.68;99570.25;7387123;19;20019;-87
2024/01/14 09:34:08;;;;;;;12.18;1.35;;;;;;;27.73;25.87;99571.31;7393467;19;20017;-87
2024/01/14 09:36:36;;;;;;;1.80;1.00;;;;;;;28.09;25.46;99569.66;7390825;19;20014;-87
2024/01/14 09:39:02;;;;;;;0.45;0.45;;;;;;;28.27;25.65;99571.72;7392073;19;20014;-88
2024/01/14 09:41:36;;;;;;;0.10;0.10;;;;;;;29.17;25.28;99565.25;7389621;19;20471;-87
2024/01/14 09:44:04;;;;;;;0.20;0.20;;;;;;;29.20;25.13;99558.25;7387961;19;20014;-87
2024/01/14 09:46:31;;;;;;;0.30;0.30;;;;;;;29.21;25.12;99562.66;7389886;19;20007;-88
2024/01/14 09:48:59;;;;;;;0.30;0.30;;;;;;;27.72;26.14;99569.06;7390137;19;20025;-88
2024/01/14 09:51:29;;;;;;;0.68;0.65;;;;;;;28.36;25.34;99568.09;7390350;19;20468;-87
2024/01/14 09:53:58;;;;;;;1.15;0.45;;;;;;;27.63;25.79;99573.44;7390625;19;20349;-88
2024/01/14 09:56:24;;;;;;;4.40;0.85;;;;;;;28.07;25.46;99569.53;7392015;19;20019;-88
2024/01/14 09:58:53;;;;;;;1.45;0.65;;;;;;;28.51;25.12;99572.72;7399268;19;20023;-88
2024/01/14 10:01:21;;;;;;;0.20;0.20;;;;;;;27.68;25.95;99563.78;7396126;19;20010;-88
2024/01/14 10:03:51;;;;;;;1.73;0.80;;;;;;;27.82;26.26;99554.72;7397629;19;20051;-88
2024/01/14 10:06:17;;;;;;;2.58;1.83;;;;;;;27.84;26.27;99558.50;7394054;19;20038;-88
2024/01/14 10:08:43;;;;;;;1.35;0.55;;;;;;;27.89;26.61;99557.44;7394947;19;20019;-90
2024/01/14 10:11:10;;;;;;;0.45;0.45;;;;;;;28.34;26.73;99556.50;7394760;19;20046;-88
2024/01/14 10:13:36;;;;;;;3.65;1.17;;;;;;;28.38;26.34;99548.19;7394844;19;20028;-88
2024/01/14 10:16:04;;;;;;;3.17;1.45;;;;;;;28.47;26.52;99552.38;7400278;19;20011;-88
2024/01/14 10:18:30;;;;;;;3.55;1.92;;;;;;;28.37;26.87;99558.13;7399230;19;20081;-87
2024/01/14 10:20:57;;;;;;;0.60;0.60;;;;;;;28.20;26.77;99558.31;7399863;19;20014;-87
2024/01/14 10:23:24;;;;;;;1.23;1.13;;;;;;;28.10;26.90;99563.31;7395449;19;20029;-86
2024/01/14 10:25:54;;;;;;;3.13;1.02;;;;;;;27.68;26.68;99557.28;7396834;19;20018;-87
2024/01/14 10:28:20;;;;;;;2.85;1.13;;;;;;;27.65;27.29;99561.38;7397034;19;20698;-87
2024/01/14 10:30:46;;;;;;;5.80;1.17;;;;;;;27.73;27.04;99557.00;7401099;19;20041;-88
2024/01/14 10:33:13;;;;;;;4.72;1.08;;;;;;;27.88;27.17;99558.78;7395773;19;20045;-88
2024/01/14 10:35:39;;;;;;;17.75;1.80;;;;;;;28.11;27.36;99547.63;7398461;19;20045;-88
2024/01/14 10:38:05;;;;;;;5.40;1.98;;;;;;;28.28;27.31;99556.06;7395720;19;20025;-87
2024/01/14 10:40:31;;;;;;;2.40;0.95;;;;;;;28.74;26.82;99549.28;7399468;19;20018;-87
2024/01/14 10:42:57;;;;;;;7.88;2.20;;;;;;;28.84;26.66;99535.66;7393822;19;20011;-87
2024/01/14 10:45:24;;;;;;;6.10;1.35;;;;;;;28.73;26.73;99548.53;7395374;19;20014;-88
2024/01/14 10:47:55;;;;;;;1.40;0.63;;;;;;;28.54;26.62;99540.72;7397350;19;20018;-88
2024/01/14 10:50:23;;;;;;;3.78;0.82;;;;;;;28.43;26.57;99538.53;7396763;19;20015;-87
2024/01/14 10:52:55;;;;;;;1.75;0.75;;;;;;;28.89;26.48;99543.19;7398641;19;20017;-88
2024/01/14 10:55:40;;;;;;;9.13;1.58;;;;;;;28.30;26.89;99530.44;7396288;19;20022;-87
2024/01/14 10:58:12;;;;;;;1.75;0.75;;;;;;;29.09;26.46;99527.34;7395117;19;20022;-88
2024/01/14 11:00:40;;;;;;;3.03;2.00;;;;;;;28.20;27.18;99526.81;7393339;19;20022;-88
2024/01/14 11:03:08;;;;;;;4.07;0.63;;;;;;;28.02;27.00;99514.06;7394166;19;20034;-88
2024/01/14 11:05:34;;;;;;;0.57;0.57;;;;;;;27.84;27.59;99509.84;7392954;19;20011;-88
2024/01/14 11:08:02;;;;;;;10.15;0.82;;;;;;;27.88;27.83;99518.72;7394404;19;20019;-88
2024/01/14 11:10:29;;;;;;;0.95;0.82;;;;;;;27.79;27.57;99516.63;7395376;19;20018;-88
2024/01/14 11:13:28;;;;;;;3.13;1.08;;;;;;;27.88;27.49;99518.72;7392922;19;20086;-87
2024/01/14 11:16:42;;;;;;;1.30;0.85;;;;;;;27.91;27.77;99506.06;7398077;19;20021;-89
2024/01/14 11:19:16;;;;;;;2.65;0.93;;;;;;;28.11;27.62;99501.81;7392428;19;20482;-87
2024/01/14 11:22:01;;;;;;;3.63;1.67;;;;;;;27.93;27.59;99497.63;7390369;19;20423;-88
2024/01/14 11:24:28;;;;;;;1.15;0.93;;;;;;;27.43;28.19;99491.03;7393063;19;20367;-88
2024/01/14 11:26:57;;;;;;;4.47;2.15;;;;;;;27.41;28.39;99488.78;7393962;19;20025;-88
2024/01/14 11:29:39;;;;;;;1.20;0.65;;;;;;;27.88;27.75;99486.47;7395498;19;20103;-87